Time;durP1;ratioP1;P1;durP2;ratioP2;P2;SDS_P1;SDS_P2;PMS_P1;PMS_P2;Temp;Humidity;BMP_temperature;BMP_pressure;BME280_temperature;BME280_humidity;BME280_pressure;Samples;Min_cycle;Max_cycle;Signal;HPM_P1;HPM_P2
2020/12/03 00:01:15;;;;;;;0.67;0.53;;;3.60;99.90;;;;;;5079621;28;20184;-83
2020/12/03 00:03:55;;;;;;;1.10;0.80;;;3.60;99.90;;;;;;5082444;28;20193;-82
2020/12/03 00:06:33;;;;;;;0.20;0.20;;;3.60;99.90;;;;;;5087795;28;20191;-81
2020/12/03 00:09:00;;;;;;;0.40;0.40;;;3.50;99.90;;;;;;5077812;28;20204;-81
2020/12/03 00:11:28;;;;;;;0.73;0.60;;;3.50;99.90;;;;;;5081421;28;20185;-82
2020/12/03 00:13:54;;;;;;;2.60;0.87;;;3.50;99.90;;;;;;5083458;28;20570;-81
2020/12/03 00:16:21;;;;;;;0.20;0.20;;;3.50;99.90;;;;;;5076263;28;20189;-81
2020/12/03 00:18:47;;;;;;;0.20;0.20;;;3.50;99.90;;;;;;5085453;28;20566;-81
2020/12/03 00:21:13;;;;;;;0.40;0.40;;;3.60;99.90;;;;;;5075361;28;20212;-81
2020/12/03 00:23:41;;;;;;;0.33;0.33;;;3.60;99.90;;;;;;5076946;28;20189;-80
2020/12/03 00:26:07;;;;;;;0.73;0.73;;;3.60;99.90;;;;;;5081780;28;20192;-81
2020/12/03 00:28:38;;;;;;;1.63;0.60;;;3.60;99.90;;;;;;5080066;28;20200;-81
2020/12/03 00:31:05;;;;;;;0.90;0.50;;;3.60;99.90;;;;;;5087231;28;20551;-81
2020/12/03 00:33:31;;;;;;;0.70;0.70;;;3.60;99.90;;;;;;5088188;28;20630;-82
2020/12/03 00:35:57;;;;;;;0.80;0.80;;;3.50;99.90;;;;;;5076729;28;20186;-81
2020/12/03 00:38:24;;;;;;;0.43;0.43;;;3.60;99.90;;;;;;5075193;28;20194;-80
2020/12/03 00:40:51;;;;;;;1.03;0.80;;;3.60;99.90;;;;;;5077187;28;20213;-81
2020/12/03 00:43:17;;;;;;;0.60;0.60;;;3.60;99.90;;;;;;5091005;28;20180;-81
2020/12/03 00:45:46;;;;;;;0.93;0.90;;;3.60;99.90;;;;;;5092627;28;20185;-81
2020/12/03 00:48:11;;;;;;;0.40;0.40;;;3.60;99.90;;;;;;5078663;28;20185;-81
2020/12/03 00:50:37;;;;;;;0.97;0.97;;;3.60;99.90;;;;;;5093517;28;20211;-81
2020/12/03 00:53:02;;;;;;;0.50;0.50;;;3.60;99.90;;;;;;5082339;28;20200;-81
2020/12/03 00:55:28;;;;;;;1.57;0.60;;;3.60;99.90;;;;;;5084320;28;20212;-81
2020/12/03 00:57:54;;;;;;;0.77;0.77;;;3.60;99.90;;;;;;5075056;28;20192;-81
2020/12/03 01:00:21;;;;;;;1.97;1.00;;;3.60;99.90;;;;;;5083612;28;20201;-80
2020/12/03 01:02:47;;;;;;;0.20;0.20;;;3.60;99.90;;;;;;5075061;28;20189;-81
2020/12/03 01:05:15;;;;;;;5.97;1.40;;;3.60;99.90;;;;;;5083813;28;20281;-81
2020/12/03 01:07:40;;;;;;;0.97;0.83;;;3.50;99.90;;;;;;5090043;28;20186;-82
2020/12/03 01:10:12;;;;;;;0.90;0.90;;;3.60;99.90;;;;;;5074543;28;20219;-82
2020/12/03 01:12:38;;;;;;;0.50;0.50;;;3.60;99.90;;;;;;5076743;28;20197;-81
2020/12/03 01:15:05;;;;;;;1.13;0.60;;;3.50;99.90;;;;;;5074852;28;20215;-81
2020/12/03 01:17:30;;;;;;;0.63;0.63;;;3.40;99.90;;;;;;5074996;28;20181;-81
2020/12/03 01:19:56;;;;;;;0.53;0.53;;;3.40;99.90;;;;;;5081439;28;20249;-81
2020/12/03 01:22:22;;;;;;;0.67;0.67;;;3.40;99.90;;;;;;5085783;28;20248;-82
2020/12/03 01:24:47;;;;;;;0.80;0.80;;;3.50;99.90;;;;;;5090438;28;20242;-81
2020/12/03 01:27:13;;;;;;;1.00;0.90;;;3.50;99.90;;;;;;5078080;28;20186;-81
2020/12/03 01:29:44;;;;;;;0.83;0.63;;;3.50;99.90;;;;;;5075659;28;20207;-81
2020/12/03 01:32:10;;;;;;;0.30;0.30;;;3.50;99.90;;;;;;5086819;28;20268;-83
2020/12/03 01:34:35;;;;;;;0.20;0.20;;;3.50;99.90;;;;;;5077923;28;20343;-82
2020/12/03 01:37:01;;;;;;;1.27;1.17;;;3.40;99.90;;;;;;5073260;28;20215;-82
2020/12/03 01:39:26;;;;;;;0.40;0.40;;;3.40;99.90;;;;;;5082377;28;20200;-81
2020/12/03 01:41:52;;;;;;;0.33;0.33;;;3.40;99.90;;;;;;5081524;28;20180;-81
2020/12/03 01:44:45;;;;;;;2.37;1.30;;;3.40;99.90;;;;;;5088292;28;20185;-82
2020/12/03 01:47:36;;;;;;;0.80;0.80;;;3.30;99.90;;;;;;5077462;28;20193;-81
2020/12/03 01:50:07;;;;;;;3.23;0.77;;;3.30;99.90;;;;;;5069306;28;20217;-82
2020/12/03 01:52:33;;;;;;;0.67;0.23;;;3.30;99.90;;;;;;5079448;28;20189;-81
2020/12/03 01:54:59;;;;;;;0.40;0.40;;;3.30;99.90;;;;;;5082127;28;20205;-82
2020/12/03 01:57:37;;;;;;;0.17;0.17;;;3.30;99.90;;;;;;5083932;28;20186;-81
2020/12/03 02:00:10;;;;;;;0.20;0.20;;;3.30;99.90;;;;;;5074058;28;20685;-81
2020/12/03 02:02:35;;;;;;;0.47;0.47;;;3.20;99.90;;;;;;5072125;28;20185;-82
2020/12/03 02:05:20;;;;;;;1.17;1.17;;;3.30;99.90;;;;;;5081558;28;20187;-81
2020/12/03 02:07:46;;;;;;;0.77;0.77;;;3.30;99.90;;;;;;5074762;28;20679;-81
2020/12/03 02:10:14;;;;;;;0.07;0.07;;;3.30;99.90;;;;;;5082781;28;20208;-82
2020/12/03 02:12:39;;;;;;;0.60;0.40;;;3.40;99.90;;;;;;5082240;28;20285;-81
2020/12/03 02:15:08;;;;;;;0.60;0.60;;;3.40;99.90;;;;;;5080826;28;20690;-81
2020/12/03 02:17:34;;;;;;;0.60;0.60;;;3.40;99.90;;;;;;5082670;28;20816;-81
2020/12/03 02:20:02;;;;;;;0.40;0.40;;;3.40;99.90;;;;;;5074473;28;20196;-81
2020/12/03 02:22:28;;;;;;;0.50;0.40;;;3.40;99.90;;;;;;5077959;28;20208;-81
2020/12/03 02:24:53;;;;;;;0.40;0.40;;;3.30;99.90;;;;;;5074604;28;20766;-81
2020/12/03 02:27:22;;;;;;;1.00;0.40;;;3.20;99.90;;;;;;5079511;28;20270;-82
2020/12/03 02:29:48;;;;;;;0.10;0.10;;;3.30;99.90;;;;;;5073889;28;20201;-81
2020/12/03 02:32:16;;;;;;;0.20;0.20;;;3.40;99.90;;;;;;5088575;28;20200;-82
2020/12/03 02:34:41;;;;;;;0.43;0.43;;;3.50;99.90;;;;;;5076688;28;20588;-81
2020/12/03 02:37:07;;;;;;;0.20;0.20;;;3.50;99.90;;;;;;5071161;28;20182;-81
2020/12/03 02:39:35;;;;;;;0.70;0.53;;;3.50;99.90;;;;;;5075737;28;20215;-81
2020/12/03 02:42:03;;;;;;;1.47;1.37;;;3.40;99.90;;;;;;5084761;28;20208;-81
2020/12/03 02:44:28;;;;;;;0.43;0.40;;;3.50;99.90;;;;;;5076181;28;20185;-81
2020/12/03 02:46:54;;;;;;;0.67;0.67;;;3.50;99.90;;;;;;5089637;28;20204;-81
2020/12/03 02:49:20;;;;;;;0.47;0.47;;;3.50;99.90;;;;;;5095705;28;20215;-81
2020/12/03 02:51:46;;;;;;;0.60;0.47;;;3.50;99.90;;;;;;5086246;28;20219;-81
2020/12/03 02:54:13;;;;;;;1.90;0.50;;;3.50;99.90;;;;;;5089924;28;20193;-81
2020/12/03 02:56:39;;;;;;;0.60;0.57;;;3.50;99.90;;;;;;5084753;28;20177;-81
2020/12/03 02:59:06;;;;;;;0.40;0.30;;;3.50;99.90;;;;;;5079585;28;20204;-81
2020/12/03 03:01:33;;;;;;;2.00;0.30;;;3.60;99.90;;;;;;5083851;28;20648;-81
2020/12/03 03:04:02;;;;;;;0.30;0.30;;;3.60;99.90;;;;;;5089630;28;20188;-81
2020/12/03 03:06:28;;;;;;;0.50;0.43;;;3.60;99.90;;;;;;5091599;28;20199;-82
2020/12/03 03:08:54;;;;;;;1.70;0.53;;;3.50;99.90;;;;;;5085039;28;20201;-81
2020/12/03 03:11:20;;;;;;;0.47;0.40;;;3.50;99.90;;;;;;5078697;28;20603;-81
2020/12/03 03:13:45;;;;;;;0.70;0.70;;;3.60;99.90;;;;;;5078489;28;20209;-81
2020/12/03 03:16:11;;;;;;;0.83;0.30;;;3.60;99.90;;;;;;5078958;28;20176;-81
2020/12/03 03:18:36;;;;;;;0.93;0.47;;;3.50;99.90;;;;;;5079428;28;20201;-81
2020/12/03 03:21:02;;;;;;;0.80;0.80;;;3.50;99.90;;;;;;5080432;28;20182;-81
2020/12/03 03:23:27;;;;;;;1.97;0.30;;;3.50;99.90;;;;;;5074964;28;20186;-82
2020/12/03 03:25:53;;;;;;;0.30;0.30;;;3.50;99.90;;;;;;5074782;28;20200;-81
2020/12/03 03:28:18;;;;;;;0.93;0.83;;;3.60;99.90;;;;;;5076861;28;20181;-82
2020/12/03 03:30:44;;;;;;;4.13;0.73;;;3.70;99.90;;;;;;5081374;28;20187;-81
2020/12/03 03:33:10;;;;;;;1.10;0.67;;;3.60;99.90;;;;;;5073449;28;20190;-81
2020/12/03 03:35:35;;;;;;;1.40;0.70;;;3.60;99.90;;;;;;5073911;28;20205;-81
2020/12/03 03:38:01;;;;;;;0.50;0.50;;;3.60;99.90;;;;;;5077994;28;20229;-81
2020/12/03 03:40:26;;;;;;;1.40;0.40;;;3.70;99.90;;;;;;5074536;28;20378;-81
2020/12/03 03:42:52;;;;;;;0.20;0.20;;;3.70;99.90;;;;;;5088557;28;20223;-81
2020/12/03 03:45:17;;;;;;;1.90;0.77;;;3.80;99.90;;;;;;5074630;28;20184;-80
2020/12/03 03:47:43;;;;;;;0.73;0.73;;;3.70;99.90;;;;;;5077438;28;20196;-82
2020/12/03 03:50:10;;;;;;;1.83;1.07;;;3.70;99.90;;;;;;5073645;28;20220;-81
2020/12/03 03:52:36;;;;;;;0.47;0.30;;;3.70;99.90;;;;;;5074016;28;20217;-81
2020/12/03 03:55:02;;;;;;;1.23;0.90;;;3.70;99.90;;;;;;5089641;28;20200;-81
2020/12/03 03:57:28;;;;;;;0.40;0.40;;;3.70;99.90;;;;;;5075453;28;20523;-81
2020/12/03 03:59:53;;;;;;;0.50;0.47;;;3.70;99.90;;;;;;5072394;28;20213;-81
2020/12/03 04:02:21;;;;;;;0.83;0.70;;;3.70;99.90;;;;;;5073998;28;20181;-84
2020/12/03 04:04:48;;;;;;;0.80;0.80;;;3.70;99.90;;;;;;5078664;28;20192;-81
2020/12/03 04:07:14;;;;;;;0.60;0.60;;;3.70;99.90;;;;;;5090884;28;20188;-81
2020/12/03 04:09:40;;;;;;;0.20;0.20;;;3.70;99.90;;;;;;5074794;28;20680;-82
2020/12/03 04:12:05;;;;;;;1.37;0.67;;;3.80;99.90;;;;;;5080878;28;20201;-81
2020/12/03 04:14:31;;;;;;;0.30;0.30;;;3.80;99.90;;;;;;5074485;28;20236;-81
2020/12/03 04:16:57;;;;;;;0.60;0.60;;;3.90;99.90;;;;;;5081829;28;20189;-81
2020/12/03 04:19:22;;;;;;;0.50;0.50;;;3.90;99.90;;;;;;5072079;28;20258;-81
2020/12/03 04:21:48;;;;;;;1.23;1.13;;;3.90;99.90;;;;;;5082627;28;20185;-82
2020/12/03 04:24:14;;;;;;;0.53;0.53;;;3.90;99.90;;;;;;5074444;28;20206;-81
2020/12/03 04:26:39;;;;;;;0.40;0.40;;;3.90;99.90;;;;;;5080341;28;20613;-81
2020/12/03 04:29:05;;;;;;;0.83;0.50;;;3.90;99.90;;;;;;5077735;28;20239;-81
2020/12/03 04:31:30;;;;;;;0.70;0.70;;;4.00;99.90;;;;;;5099070;28;20299;-82
2020/12/03 04:33:56;;;;;;;0.33;0.33;;;3.90;99.90;;;;;;5084768;28;20208;-81
2020/12/03 04:36:22;;;;;;;0.60;0.60;;;3.80;99.90;;;;;;5081162;28;20297;-82
2020/12/03 04:38:47;;;;;;;0.53;0.53;;;3.80;99.90;;;;;;5078473;28;20197;-81
2020/12/03 04:41:13;;;;;;;0.93;0.60;;;3.90;99.90;;;;;;5083945;28;20182;-81
2020/12/03 04:43:43;;;;;;;0.00;0.00;;;3.90;99.90;;;;;;5093374;28;20196;-81
2020/12/03 04:46:27;;;;;;;0.57;0.57;;;3.90;99.90;;;;;;5094133;28;20605;-81
2020/12/03 04:49:07;;;;;;;1.10;0.67;;;3.80;99.90;;;;;;5084976;28;20209;-82
2020/12/03 04:52:08;;;;;;;0.20;0.20;;;3.90;99.90;;;;;;5077305;28;20189;-80
2020/12/03 04:55:01;;;;;;;0.10;0.10;;;4.00;99.90;;;;;;5077877;28;20702;-81
2020/12/03 04:57:36;;;;;;;0.73;0.60;;;3.90;99.90;;;;;;5078530;28;20193;-82
2020/12/03 05:00:20;;;;;;;1.37;0.73;;;3.90;99.90;;;;;;5073835;28;20273;-81
2020/12/03 05:03:18;;;;;;;0.87;0.57;;;3.70;99.90;;;;;;5090497;28;20245;-81
2020/12/03 05:06:12;;;;;;;2.67;0.20;;;3.60;99.90;;;;;;5079115;28;20227;-81
2020/12/03 05:09:02;;;;;;;0.33;0.33;;;3.60;99.90;;;;;;5080316;28;20304;-82
2020/12/03 05:11:37;;;;;;;0.30;0.30;;;3.60;99.90;;;;;;5080450;28;20206;-82
2020/12/03 05:14:12;;;;;;;1.90;0.70;;;3.50;99.90;;;;;;5090404;28;20204;-81
2020/12/03 05:16:56;;;;;;;0.87;0.57;;;3.50;99.90;;;;;;5074521;28;20551;-82
2020/12/03 05:19:43;;;;;;;1.97;0.97;;;3.50;99.90;;;;;;5074768;28;20209;-82
2020/12/03 05:22:28;;;;;;;0.40;0.40;;;3.40;99.90;;;;;;5075230;28;20219;-82
2020/12/03 05:24:55;;;;;;;1.13;0.57;;;3.50;99.90;;;;;;5085001;28;20184;-81
2020/12/03 05:27:25;;;;;;;1.43;1.17;;;3.50;99.90;;;;;;5086808;28;20200;-81
2020/12/03 05:29:51;;;;;;;3.33;0.73;;;3.50;99.90;;;;;;5078884;28;20340;-81
2020/12/03 05:32:16;;;;;;;1.37;0.63;;;3.50;99.90;;;;;;5084029;28;20185;-81
2020/12/03 05:34:42;;;;;;;0.83;0.60;;;3.40;99.90;;;;;;5076756;28;20193;-81
2020/12/03 05:37:14;;;;;;;0.43;0.43;;;3.40;99.90;;;;;;5077747;28;20185;-82
2020/12/03 05:39:44;;;;;;;1.03;0.90;;;3.40;99.90;;;;;;5074097;28;20305;-81
2020/12/03 05:42:15;;;;;;;0.63;0.40;;;3.50;99.90;;;;;;5080995;28;20255;-81
2020/12/03 05:44:53;;;;;;;2.17;0.73;;;3.50;99.90;;;;;;5092942;28;20184;-81
2020/12/03 05:47:27;;;;;;;0.50;0.50;;;3.50;99.90;;;;;;5082250;28;20193;-81
2020/12/03 05:50:07;;;;;;;0.50;0.50;;;3.50;99.90;;;;;;5083252;28;20213;-81
2020/12/03 05:52:34;;;;;;;1.13;0.83;;;3.60;99.90;;;;;;5080651;28;20188;-81
2020/12/03 05:55:08;;;;;;;0.67;0.67;;;3.70;99.90;;;;;;5085570;28;20212;-82
2020/12/03 05:57:39;;;;;;;0.93;0.63;;;3.70;99.90;;;;;;5082585;28;20295;-82
2020/12/03 06:00:14;;;;;;;2.93;1.47;;;3.70;99.90;;;;;;5071853;28;20209;-81
2020/12/03 06:03:01;;;;;;;2.53;0.57;;;3.70;99.90;;;;;;5076042;28;20545;-81
2020/12/03 06:05:49;;;;;;;0.77;0.67;;;3.70;99.90;;;;;;5086374;28;20193;-79
2020/12/03 06:08:29;;;;;;;0.40;0.40;;;3.80;99.90;;;;;;5088138;28;20189;-81
2020/12/03 06:11:22;;;;;;;0.47;0.47;;;3.80;99.90;;;;;;5085150;28;20192;-81
2020/12/03 06:14:03;;;;;;;0.47;0.47;;;3.60;99.90;;;;;;5085818;28;20215;-81
2020/12/03 06:16:33;;;;;;;2.90;0.50;;;3.60;99.90;;;;;;5081172;28;20210;-81
2020/12/03 06:19:21;;;;;;;0.70;0.70;;;3.60;99.90;;;;;;5087847;28;20265;-81
2020/12/03 06:21:59;;;;;;;0.23;0.23;;;3.70;99.90;;;;;;5085193;28;20346;-80
2020/12/03 06:24:41;;;;;;;1.10;0.60;;;3.60;99.90;;;;;;5091831;28;20199;-80
2020/12/03 06:27:41;;;;;;;1.50;1.07;;;3.60;99.90;;;;;;5082612;28;20193;-80
2020/12/03 06:30:13;;;;;;;1.13;0.90;;;3.60;99.90;;;;;;5080737;28;20213;-80
2020/12/03 06:32:38;;;;;;;0.27;0.27;;;3.60;99.90;;;;;;5086118;28;20239;-80
2020/12/03 06:35:30;;;;;;;0.23;0.23;;;3.50;99.90;;;;;;5079777;28;20209;-80
2020/12/03 06:38:01;;;;;;;0.60;0.60;;;3.50;99.90;;;;;;5080739;28;20184;-81
2020/12/03 06:40:31;;;;;;;0.60;0.60;;;3.60;99.90;;;;;;5079849;28;20198;-81
2020/12/03 06:43:18;;;;;;;0.70;0.70;;;3.60;99.90;;;;;;5093393;28;20181;-81
2020/12/03 06:45:57;;;;;;;0.80;0.80;;;3.60;99.90;;;;;;5087523;28;20583;-81
2020/12/03 06:49:00;;;;;;;0.97;0.60;;;3.60;99.90;;;;;;5073303;28;20216;-80
2020/12/03 06:52:16;;;;;;;0.63;0.37;;;3.60;99.90;;;;;;5074405;28;20188;-80
2020/12/03 06:55:10;;;;;;;0.47;0.40;;;3.50;99.90;;;;;;5080611;28;20217;-79
2020/12/03 06:57:57;;;;;;;1.30;0.50;;;3.60;99.90;;;;;;5081330;28;20435;-81
2020/12/03 07:00:29;;;;;;;0.40;0.40;;;3.60;99.90;;;;;;5078239;28;20200;-81
2020/12/03 07:03:10;;;;;;;1.03;0.67;;;3.60;99.90;;;;;;5082570;28;20217;-81
2020/12/03 07:05:59;;;;;;;0.40;0.33;;;3.50;99.90;;;;;;5087146;28;20196;-80
2020/12/03 07:08:46;;;;;;;0.30;0.30;;;3.60;99.90;;;;;;5084743;28;20189;-81
2020/12/03 07:11:37;;;;;;;0.70;0.50;;;3.60;99.90;;;;;;5080852;28;20208;-83
2020/12/03 07:14:27;;;;;;;1.10;0.97;;;3.70;99.90;;;;;;5083150;28;20600;-81
2020/12/03 07:17:11;;;;;;;2.37;0.60;;;3.70;99.90;;;;;;5078138;28;20297;-81
2020/12/03 07:20:08;;;;;;;0.70;0.43;;;3.70;99.90;;;;;;5084247;28;20196;-80
2020/12/03 07:22:42;;;;;;;0.40;0.40;;;3.70;99.90;;;;;;5079946;28;20193;-81
2020/12/03 07:25:09;;;;;;;0.67;0.67;;;3.70;99.90;;;;;;5078669;28;20329;-79
2020/12/03 07:28:04;;;;;;;0.43;0.43;;;3.70;99.90;;;;;;5080480;28;20185;-81
2020/12/03 07:30:52;;;;;;;0.33;0.33;;;3.80;99.90;;;;;;5080593;28;20261;-82
2020/12/03 07:33:52;;;;;;;0.70;0.43;;;3.60;99.90;;;;;;5086024;28;20203;-81
2020/12/03 07:36:28;;;;;;;0.70;0.60;;;3.60;99.90;;;;;;5083875;28;20186;-81
2020/12/03 07:39:02;;;;;;;0.50;0.50;;;3.70;99.90;;;;;;5084221;28;20617;-81
2020/12/03 07:41:30;;;;;;;0.97;0.87;;;3.70;99.90;;;;;;5083685;28;20182;-81
2020/12/03 07:44:31;;;;;;;1.00;0.20;;;3.70;99.90;;;;;;5082219;28;20192;-81
2020/12/03 07:47:15;;;;;;;0.67;0.23;;;3.70;99.90;;;;;;5081944;28;20188;-81
2020/12/03 07:49:46;;;;;;;0.37;0.37;;;3.60;99.90;;;;;;5080865;28;20287;-81
2020/12/03 07:52:32;;;;;;;1.07;0.83;;;3.70;99.90;;;;;;5080772;28;20267;-81
2020/12/03 07:55:20;;;;;;;0.43;0.43;;;3.80;99.90;;;;;;5079700;28;20638;-82
2020/12/03 07:57:46;;;;;;;1.40;0.30;;;3.80;99.90;;;;;;5083605;28;20911;-82
2020/12/03 08:00:24;;;;;;;1.90;0.93;;;3.70;99.90;;;;;;5081604;28;20212;-81
2020/12/03 08:02:58;;;;;;;0.63;0.63;;;3.70;99.90;;;;;;5080195;28;20619;-87
2020/12/03 08:05:39;;;;;;;0.20;0.20;;;3.70;99.90;;;;;;5081620;28;20190;-81
2020/12/03 08:08:35;;;;;;;2.53;0.30;;;3.70;99.90;;;;;;5085955;28;20668;-81
2020/12/03 08:11:02;;;;;;;0.43;0.43;;;3.70;99.90;;;;;;5080415;28;20279;-80
2020/12/03 08:13:40;;;;;;;0.20;0.20;;;3.70;99.90;;;;;;5080223;28;20193;-81
2020/12/03 08:16:11;;;;;;;0.30;0.30;;;3.70;99.90;;;;;;5089959;28;20185;-81
2020/12/03 08:18:42;;;;;;;0.53;0.50;;;3.70;99.90;;;;;;5095031;28;20669;-81
2020/12/03 08:21:08;;;;;;;0.83;0.83;;;3.80;99.90;;;;;;5093988;28;20215;-81
2020/12/03 08:23:34;;;;;;;0.40;0.40;;;3.70;99.90;;;;;;5081459;28;20672;-81
2020/12/03 08:26:00;;;;;;;0.30;0.30;;;3.70;99.90;;;;;;5073757;28;20189;-81
2020/12/03 08:28:29;;;;;;;0.53;0.53;;;3.60;99.90;;;;;;5073558;28;20189;-81
2020/12/03 08:30:54;;;;;;;3.10;1.53;;;3.60;99.90;;;;;;5084962;28;20529;-81
2020/12/03 08:33:31;;;;;;;2.13;0.80;;;3.70;99.90;;;;;;5082166;28;20268;-81
2020/12/03 08:36:03;;;;;;;0.37;0.37;;;3.70;99.90;;;;;;5081826;28;20188;-81
2020/12/03 08:38:35;;;;;;;1.63;0.97;;;3.80;99.90;;;;;;5093876;28;20180;-81
2020/12/03 08:41:05;;;;;;;1.70;0.83;;;3.70;99.90;;;;;;5094466;28;20177;-80
2020/12/03 08:43:39;;;;;;;0.10;0.10;;;3.70;99.90;;;;;;5095278;28;20181;-80
2020/12/03 08:46:12;;;;;;;0.60;0.60;;;3.70;99.90;;;;;;5096416;28;20766;-81
2020/12/03 08:48:39;;;;;;;0.57;0.57;;;3.80;99.90;;;;;;5095729;28;20226;-81
2020/12/03 08:51:08;;;;;;;0.30;0.30;;;3.70;99.90;;;;;;5094706;28;20538;-81
2020/12/03 08:53:35;;;;;;;1.63;0.93;;;3.80;99.90;;;;;;5090517;28;20633;-81
2020/12/03 08:56:11;;;;;;;0.50;0.50;;;3.80;99.90;;;;;;5082619;28;20540;-81
2020/12/03 08:58:37;;;;;;;1.33;0.63;;;3.90;99.90;;;;;;5075506;28;20183;-81
2020/12/03 09:01:04;;;;;;;0.77;0.77;;;3.90;99.90;;;;;;5075504;28;20181;-81
2020/12/03 09:03:34;;;;;;;0.70;0.70;;;3.90;99.90;;;;;;5077972;28;20183;-80
2020/12/03 09:06:00;;;;;;;2.73;1.50;;;3.90;99.90;;;;;;5076226;28;20214;-81
2020/12/03 09:08:26;;;;;;;0.63;0.63;;;4.00;99.90;;;;;;5072686;28;20562;-81
2020/12/03 09:10:55;;;;;;;0.40;0.40;;;3.90;99.90;;;;;;5081204;28;20177;-81
2020/12/03 09:13:21;;;;;;;0.87;0.77;;;4.10;99.90;;;;;;5073091;28;20811;-81
2020/12/03 09:15:51;;;;;;;1.00;0.40;;;4.10;99.90;;;;;;5074577;28;20284;-81
2020/12/03 09:18:17;;;;;;;1.50;0.50;;;4.10;99.90;;;;;;5072778;28;20219;-81
2020/12/03 09:20:44;;;;;;;5.40;0.67;;;4.10;99.90;;;;;;5079272;28;20673;-81
2020/12/03 09:23:22;;;;;;;0.93;0.40;;;4.10;99.90;;;;;;5079758;28;20170;-81
2020/12/03 09:25:49;;;;;;;1.37;0.47;;;4.10;99.90;;;;;;5072926;28;20195;-81
2020/12/03 09:28:15;;;;;;;1.73;1.63;;;4.10;99.90;;;;;;5090106;28;20194;-81
2020/12/03 09:30:45;;;;;;;0.73;0.53;;;4.00;99.90;;;;;;5092243;28;20202;-80
2020/12/03 09:33:16;;;;;;;0.93;0.93;;;4.00;99.90;;;;;;5094382;28;20185;-80
2020/12/03 09:35:43;;;;;;;0.70;0.60;;;4.00;99.90;;;;;;5077833;28;20304;-80
2020/12/03 09:38:11;;;;;;;7.93;0.67;;;4.00;99.90;;;;;;5086763;28;20177;-83
2020/12/03 09:40:37;;;;;;;0.10;0.10;;;4.00;99.90;;;;;;5081550;28;20553;-80
2020/12/03 09:43:04;;;;;;;0.53;0.50;;;4.00;99.90;;;;;;5086682;28;20192;-80
2020/12/03 09:45:39;;;;;;;3.30;0.80;;;4.10;99.90;;;;;;5090333;28;20265;-79
2020/12/03 09:48:12;;;;;;;0.40;0.40;;;4.10;99.90;;;;;;5072965;28;20184;-79
2020/12/03 09:50:41;;;;;;;0.70;0.37;;;4.10;99.90;;;;;;5074402;28;20197;-80
2020/12/03 09:53:11;;;;;;;1.70;0.97;;;4.10;99.90;;;;;;5088510;28;20557;-81
2020/12/03 09:55:36;;;;;;;0.37;0.37;;;4.20;99.90;;;;;;5076633;28;20208;-82
2020/12/03 09:58:03;;;;;;;0.80;0.70;;;4.30;99.90;;;;;;5089930;28;20189;-81
2020/12/03 10:00:31;;;;;;;3.83;0.53;;;4.30;99.90;;;;;;5074767;28;20207;-81
2020/12/03 10:02:57;;;;;;;0.63;0.63;;;4.30;99.90;;;;;;5087955;28;20713;-81
2020/12/03 10:05:46;;;;;;;0.23;0.23;;;4.30;99.90;;;;;;5077184;28;20198;-81
2020/12/03 10:08:40;;;;;;;1.13;1.07;;;4.30;99.90;;;;;;5086799;28;20687;-80
2020/12/03 10:11:30;;;;;;;1.93;1.40;;;4.40;99.90;;;;;;5072705;28;20277;-79
2020/12/03 10:14:11;;;;;;;0.77;0.77;;;4.40;99.90;;;;;;5074873;28;20696;-80
2020/12/03 10:16:40;;;;;;;1.63;0.87;;;4.50;99.90;;;;;;5076140;28;20201;-81
2020/12/03 10:19:10;;;;;;;1.33;1.10;;;4.50;99.90;;;;;;5081229;28;20650;-81
2020/12/03 10:21:41;;;;;;;2.47;0.90;;;4.50;99.90;;;;;;5075811;28;20188;-81
2020/12/03 10:24:10;;;;;;;0.43;0.43;;;4.50;99.90;;;;;;5079314;28;20291;-81
2020/12/03 10:26:55;;;;;;;1.33;1.23;;;4.50;99.90;;;;;;5075730;28;20204;-81
2020/12/03 10:29:32;;;;;;;2.57;0.30;;;4.60;99.90;;;;;;5075334;28;20576;-80
2020/12/03 10:32:11;;;;;;;1.23;0.37;;;4.50;99.90;;;;;;5080244;28;20185;-82
2020/12/03 10:34:46;;;;;;;0.93;0.70;;;4.50;99.90;;;;;;5081910;28;20269;-81
2020/12/03 10:37:24;;;;;;;0.30;0.30;;;4.50;99.90;;;;;;5074622;28;20412;-81
2020/12/03 10:39:58;;;;;;;1.47;0.57;;;4.50;99.90;;;;;;5073338;28;20229;-81
2020/12/03 10:42:30;;;;;;;2.20;1.43;;;4.60;99.90;;;;;;5080311;28;20176;-80
2020/12/03 10:45:04;;;;;;;0.70;0.70;;;4.70;99.90;;;;;;5083053;28;20680;-81
2020/12/03 10:47:41;;;;;;;1.30;0.60;;;4.70;99.90;;;;;;5076507;28;20599;-81
2020/12/03 10:50:07;;;;;;;0.53;0.53;;;4.60;99.90;;;;;;5073420;28;20576;-82
2020/12/03 10:52:33;;;;;;;4.33;1.03;;;4.70;99.90;;;;;;5072710;28;20269;-81
2020/12/03 10:55:00;;;;;;;0.53;0.30;;;4.70;99.90;;;;;;5072138;28;20210;-81
2020/12/03 10:57:30;;;;;;;3.00;1.43;;;4.70;99.90;;;;;;5082776;28;20675;-81
2020/12/03 10:59:57;;;;;;;0.70;0.63;;;4.70;99.90;;;;;;5073648;28;20230;-81
2020/12/03 11:02:26;;;;;;;0.50;0.50;;;4.80;99.90;;;;;;5071799;28;20205;-81
2020/12/03 11:04:53;;;;;;;1.00;0.60;;;4.80;99.90;;;;;;5080503;28;20217;-80
2020/12/03 11:07:18;;;;;;;3.03;1.30;;;4.80;99.90;;;;;;5068955;28;20182;-80
2020/12/03 11:09:51;;;;;;;0.77;0.60;;;4.80;99.90;;;;;;5076730;28;20213;-82
2020/12/03 11:12:17;;;;;;;1.17;0.50;;;4.90;99.90;;;;;;5078600;28;20202;-81
2020/12/03 11:14:43;;;;;;;2.37;1.30;;;4.80;99.90;;;;;;5074012;28;20538;-79
2020/12/03 11:17:34;;;;;;;3.17;1.13;;;4.80;99.90;;;;;;5073890;28;20203;-80
2020/12/03 11:20:03;;;;;;;0.90;0.90;;;4.80;99.90;;;;;;5072015;28;20339;-78
2020/12/03 11:22:41;;;;;;;1.93;1.43;;;4.80;99.90;;;;;;5068079;28;20177;-79
2020/12/03 11:25:09;;;;;;;1.00;1.00;;;4.80;99.90;;;;;;5072154;28;20271;-80
2020/12/03 11:27:40;;;;;;;0.50;0.50;;;4.80;99.90;;;;;;5063778;28;20182;-79
2020/12/03 11:30:16;;;;;;;0.80;0.73;;;4.80;99.90;;;;;;5069080;28;20296;-80
2020/12/03 11:32:48;;;;;;;6.83;0.97;;;4.60;99.90;;;;;;5071564;28;20209;-78
2020/12/03 11:35:28;;;;;;;1.90;1.33;;;4.70;99.90;;;;;;5070415;28;20203;-79
2020/12/03 11:37:55;;;;;;;2.60;0.80;;;4.70;99.90;;;;;;5069791;28;20797;-80
2020/12/03 11:43:32;;;;;;;0.37;0.37;;;4.80;99.90;;;;;;5074018;28;20211;-81
2020/12/03 11:48:55;;;;;;;1.33;0.87;;;4.80;99.90;;;;;;5077451;28;20208;-80
2020/12/03 11:51:34;;;;;;;0.20;0.20;;;4.80;99.90;;;;;;5080058;28;20183;-80
2020/12/03 11:54:03;;;;;;;1.20;1.00;;;4.90;99.90;;;;;;5072038;28;20203;-80
2020/12/03 11:56:29;;;;;;;0.37;0.37;;;5.00;99.90;;;;;;5081602;28;20265;-79
2020/12/03 11:59:13;;;;;;;0.80;0.80;;;5.00;99.90;;;;;;5074809;28;20475;-80
2020/12/03 12:01:48;;;;;;;2.10;0.70;;;5.00;99.90;;;;;;5073779;28;20261;-79
2020/12/03 12:04:14;;;;;;;1.23;1.00;;;4.90;99.90;;;;;;5083466;28;20185;-80
2020/12/03 12:12:37;;;;;;;2.40;0.87;;;5.00;99.90;;;;;;5034537;28;20196;-79
2020/12/03 12:15:03;;;;;;;0.30;0.30;;;5.00;99.90;;;;;;5068142;28;20222;-80
2020/12/03 12:17:35;;;;;;;1.50;0.97;;;5.00;99.90;;;;;;5074078;28;20181;-79
2020/12/03 12:20:05;;;;;;;0.73;0.60;;;5.10;99.90;;;;;;5075816;28;20230;-80
2020/12/03 12:22:31;;;;;;;2.33;1.40;;;5.10;99.90;;;;;;5065884;28;20247;-81
2020/12/03 12:24:56;;;;;;;1.00;0.67;;;5.20;99.90;;;;;;5078364;28;20193;-81
2020/12/03 12:27:22;;;;;;;0.90;0.53;;;5.20;99.90;;;;;;5071855;28;20203;-80
2020/12/03 12:29:47;;;;;;;2.50;1.13;;;5.20;99.90;;;;;;5075328;28;20269;-78
2020/12/03 12:32:13;;;;;;;1.03;1.03;;;5.20;99.90;;;;;;5075781;28;20247;-80
2020/12/03 12:34:43;;;;;;;0.83;0.70;;;5.10;99.90;;;;;;5076700;28;20206;-81
2020/12/03 12:37:10;;;;;;;1.07;1.07;;;5.20;99.90;;;;;;5073241;28;20186;-80
2020/12/03 12:39:36;;;;;;;1.47;1.30;;;5.10;99.90;;;;;;5076502;28;20226;-79
2020/12/03 12:42:03;;;;;;;1.50;1.17;;;5.00;99.90;;;;;;5077778;28;20185;-79
2020/12/03 12:44:29;;;;;;;0.77;0.60;;;5.00;99.90;;;;;;5083494;28;20194;-81
2020/12/03 12:46:59;;;;;;;0.37;0.37;;;5.00;99.90;;;;;;5083765;28;20182;-80
2020/12/03 12:49:25;;;;;;;1.47;1.13;;;5.00;99.90;;;;;;5097020;28;20241;-79
2020/12/03 12:51:51;;;;;;;2.40;2.20;;;5.00;99.90;;;;;;5096185;28;20183;-80
2020/12/03 12:54:24;;;;;;;1.23;1.13;;;5.00;99.90;;;;;;5080187;28;20226;-80
2020/12/03 12:56:52;;;;;;;0.43;0.30;;;5.00;99.90;;;;;;5078158;28;20209;-79
2020/12/03 12:59:17;;;;;;;1.57;0.83;;;5.10;99.90;;;;;;5094109;28;20261;-80
2020/12/03 13:01:48;;;;;;;0.97;0.87;;;5.20;99.90;;;;;;5085532;28;20182;-81
2020/12/03 13:04:14;;;;;;;1.07;1.07;;;5.20;99.90;;;;;;5083722;28;20191;-80
2020/12/03 13:06:41;;;;;;;2.33;0.83;;;5.20;99.90;;;;;;5088693;28;20271;-80
2020/12/03 13:09:08;;;;;;;2.27;1.03;;;5.30;99.90;;;;;;5089901;28;20271;-81
2020/12/03 13:11:33;;;;;;;2.50;1.10;;;5.30;99.90;;;;;;5082766;28;20232;-80
2020/12/03 13:13:59;;;;;;;1.23;1.10;;;5.30;99.90;;;;;;5081639;28;20211;-80
2020/12/03 13:16:25;;;;;;;2.00;1.20;;;5.20;99.90;;;;;;5080727;28;20196;-81
2020/12/03 13:18:51;;;;;;;0.63;0.63;;;5.10;99.90;;;;;;5087404;28;20201;-79
2020/12/03 13:21:16;;;;;;;0.63;0.63;;;5.20;99.90;;;;;;5075041;28;20189;-80
2020/12/03 13:23:42;;;;;;;1.23;0.60;;;5.20;99.90;;;;;;5080220;28;20271;-81
2020/12/03 13:26:13;;;;;;;0.43;0.40;;;5.20;99.90;;;;;;5076996;28;20203;-81
2020/12/03 13:28:38;;;;;;;0.87;0.87;;;5.20;99.90;;;;;;5083783;28;20194;-80
2020/12/03 13:31:04;;;;;;;0.77;0.77;;;5.10;99.90;;;;;;5078897;28;20185;-82
2020/12/03 13:33:29;;;;;;;1.63;0.87;;;5.10;99.90;;;;;;5081244;28;20606;-80